createdAt,value
2018-07-24T00:00:43.141Z,54.2
2018-07-24T00:01:43.872Z,54.1
2018-07-24T00:02:44.655Z,54.2
2018-07-24T00:03:45.869Z,53.1
2018-07-24T00:04:46.673Z,52.1
2018-07-24T00:05:47.511Z,52.3
2018-07-24T00:06:48.287Z,51.7
2018-07-24T00:07:49.169Z,52.1
2018-07-24T00:08:49.968Z,53.3
2018-07-24T00:09:50.710Z,53.3
2018-07-24T00:10:51.765Z,52.1
2018-07-24T00:11:52.539Z,52.0
2018-07-24T00:12:53.405Z,51.4
2018-07-24T00:13:54.228Z,52.0
2018-07-24T00:14:55.124Z,51.4
2018-07-24T00:15:55.854Z,50.8
2018-07-24T00:16:56.685Z,50.3
2018-07-24T00:17:57.690Z,50.4
2018-07-24T00:18:58.415Z,50.5
2018-07-24T00:19:59.200Z,50.9
2018-07-24T00:21:00.188Z,50.2
2018-07-24T00:22:00.945Z,49.7
2018-07-24T00:23:01.780Z,50.3
2018-07-24T00:24:02.640Z,49.7
2018-07-24T00:25:03.879Z,50.1
2018-07-24T00:26:04.751Z,49.5
2018-07-24T00:27:05.865Z,50.3
2018-07-24T00:28:06.659Z,50.8
2018-07-24T00:29:07.668Z,50.4
2018-07-24T00:30:08.428Z,50.8
2018-07-24T00:31:09.159Z,50.9
2018-07-24T00:32:09.932Z,51.3
2018-07-24T00:33:10.760Z,50.8
2018-07-24T00:34:12.004Z,51.3
2018-07-24T00:35:12.757Z,51.7
2018-07-24T00:36:13.886Z,51.7
2018-07-24T00:37:14.994Z,50.2
2018-07-24T00:38:15.778Z,51.4
2018-07-24T00:39:16.753Z,51.7
2018-07-24T00:40:17.849Z,51.8
2018-07-24T00:41:19.035Z,51.0
2018-07-24T00:42:19.798Z,50.2
2018-07-24T00:43:20.926Z,50.1
2018-07-24T00:44:21.647Z,49.8
2018-07-24T00:45:22.362Z,49.1
2018-07-24T00:46:23.141Z,47.2
2018-07-24T00:47:23.877Z,48.1
2018-07-24T00:48:24.594Z,47.8
2018-07-24T00:49:25.326Z,47.4
2018-07-24T00:50:26.049Z,46.9
2018-07-24T00:51:26.822Z,46.5
2018-07-24T00:52:27.804Z,46.8
2018-07-24T00:53:28.789Z,46.7
2018-07-24T00:54:29.512Z,46.6
2018-07-24T00:55:30.490Z,46.4
2018-07-24T00:56:31.208Z,45.9
2018-07-24T00:57:31.948Z,45.2
2018-07-24T00:58:32.712Z,44.1
2018-07-24T00:59:33.435Z,44.6
2018-07-24T01:00:34.163Z,43.9
2018-07-24T01:01:34.903Z,43.8
2018-07-24T01:02:35.619Z,43.9
2018-07-24T01:03:36.331Z,43.4
2018-07-24T01:04:37.297Z,44.5
2018-07-24T01:05:38.022Z,44.7
2018-07-24T01:06:38.746Z,43.9
2018-07-24T01:07:39.479Z,44.1
2018-07-24T01:08:40.566Z,44.1
2018-07-24T01:09:41.225Z,43.7
2018-07-24T01:10:41.962Z,43.9
2018-07-24T01:11:42.684Z,43.8
2018-07-24T01:12:43.405Z,43.5
2018-07-24T01:13:44.133Z,42.8
2018-07-24T01:14:44.857Z,42.7
2018-07-24T01:15:45.584Z,43.5
2018-07-24T01:16:46.305Z,43.5
2018-07-24T01:17:47.035Z,43.9
2018-07-24T01:18:47.750Z,44.1
2018-07-24T01:19:48.728Z,43.9
2018-07-24T01:20:49.761Z,43.9
2018-07-24T01:21:50.488Z,44.2
2018-07-24T01:22:51.224Z,44.7
2018-07-24T01:23:52.198Z,45.4
2018-07-24T01:24:52.919Z,43.4
2018-07-24T01:25:53.638Z,42.9
2018-07-24T01:26:54.615Z,42.6
2018-07-24T01:27:55.333Z,43.1
2018-07-24T01:28:56.067Z,42.7
2018-07-24T01:29:56.788Z,42.2
2018-07-24T01:30:57.510Z,41.7
2018-07-24T01:31:58.828Z,41.3
2018-07-24T01:32:59.559Z,40.8
2018-07-24T01:34:00.278Z,41.4
2018-07-24T01:35:01.266Z,42.2
2018-07-24T01:36:01.984Z,42.2
2018-07-24T01:37:03.060Z,42.6
2018-07-24T01:38:03.782Z,42.0
2018-07-24T01:39:04.755Z,41.6
2018-07-24T01:40:05.479Z,41.7
2018-07-24T01:41:06.236Z,41.5
2018-07-24T01:42:06.963Z,41.1
2018-07-24T01:43:07.694Z,40.5
2018-07-24T01:44:08.418Z,40.4
2018-07-24T01:45:09.149Z,40.9
2018-07-24T01:46:09.873Z,39.8
2018-07-24T01:47:10.651Z,39.8
2018-07-24T01:48:11.367Z,39.5
2018-07-24T01:49:12.344Z,39.4
2018-07-24T01:50:13.064Z,39.5
2018-07-24T01:51:13.790Z,38.6
2018-07-24T01:52:14.508Z,39.0
2018-07-24T01:53:15.221Z,38.6
2018-07-24T01:54:16.188Z,38.4
2018-07-24T01:55:16.922Z,38.1
2018-07-24T01:56:17.655Z,38.0
2018-07-24T01:57:18.377Z,38.8
2018-07-24T01:58:19.102Z,39.3
2018-07-24T01:59:19.821Z,39.2
2018-07-24T02:00:20.539Z,39.3
2018-07-24T02:01:21.268Z,39.4
2018-07-24T02:02:21.999Z,39.2
2018-07-24T02:03:22.716Z,38.0
2018-07-24T02:04:23.739Z,38.0
2018-07-24T02:05:24.458Z,38.3
2018-07-24T02:06:25.202Z,38.1
2018-07-24T02:07:25.928Z,37.8
2018-07-24T02:08:26.656Z,38.0
2018-07-24T02:09:27.375Z,38.1
2018-07-24T02:10:28.159Z,38.0
2018-07-24T02:11:28.890Z,38.1
2018-07-24T02:12:29.622Z,37.7
2018-07-24T02:13:30.348Z,36.9
2018-07-24T02:14:31.065Z,37.0
2018-07-24T02:15:31.790Z,36.6
2018-07-24T02:16:32.772Z,36.8
2018-07-24T02:17:33.489Z,36.7
2018-07-24T02:18:34.210Z,36.9
2018-07-24T02:19:34.934Z,36.3
2018-07-24T02:20:35.922Z,35.8
2018-07-24T02:21:36.636Z,35.9
2018-07-24T02:22:37.366Z,35.5
2018-07-24T02:23:38.079Z,35.0
2018-07-24T02:24:39.066Z,34.9
2018-07-24T02:25:39.785Z,35.1
2018-07-24T02:26:40.815Z,34.1
2018-07-24T02:27:41.541Z,34.4
2018-07-24T02:28:42.516Z,34.1
2018-07-24T02:29:43.246Z,33.8
2018-07-24T02:30:43.968Z,32.6
2018-07-24T02:31:44.704Z,32.2
2018-07-24T02:32:45.409Z,31.3
2018-07-24T02:33:46.145Z,31.8
2018-07-24T02:34:46.873Z,32.2
2018-07-24T02:35:47.879Z,32.3
2018-07-24T02:36:48.606Z,32.3
2018-07-24T02:37:49.323Z,31.9
2018-07-24T02:38:50.051Z,31.4
2018-07-24T02:39:50.780Z,31.9
2018-07-24T02:40:51.521Z,32.1
2018-07-24T02:41:52.252Z,32.2
2018-07-24T02:42:53.022Z,32.2
2018-07-24T02:43:53.742Z,31.9
2018-07-24T02:44:54.468Z,32.2
2018-07-24T02:45:55.192Z,32.2
2018-07-24T02:46:55.922Z,31.9
2018-07-24T02:47:56.640Z,31.6
2018-07-24T02:48:57.612Z,30.7
2018-07-24T02:49:58.388Z,31.0
2018-07-24T02:50:59.106Z,30.7
2018-07-24T02:51:59.821Z,30.8
2018-07-24T02:53:00.550Z,30.6
2018-07-24T02:54:01.264Z,31.5
2018-07-24T02:55:01.986Z,31.4
2018-07-24T02:56:02.705Z,30.7
2018-07-24T02:57:03.685Z,31.6
2018-07-24T02:58:04.657Z,32.2
2018-07-24T02:59:05.632Z,31.8
2018-07-24T03:00:06.354Z,31.6
2018-07-24T03:01:07.077Z,30.7
2018-07-24T03:02:07.800Z,30.9
2018-07-24T03:03:08.540Z,31.0
2018-07-24T03:04:09.277Z,30.7
2018-07-24T03:05:10.249Z,30.7
2018-07-24T03:06:11.232Z,30.8
2018-07-24T03:07:11.946Z,30.7
2018-07-24T03:08:12.671Z,31.6
2018-07-24T03:09:13.401Z,32.4
2018-07-24T03:10:14.122Z,32.7
2018-07-24T03:11:14.840Z,31.7
2018-07-24T03:12:15.825Z,31.2
2018-07-24T03:13:16.590Z,31.5
2018-07-24T03:14:17.315Z,31.5
2018-07-24T03:15:18.040Z,30.5
2018-07-24T03:16:18.835Z,30.5
2018-07-24T03:17:19.506Z,30.4
2018-07-24T03:18:20.528Z,31.0
2018-07-24T03:19:21.264Z,30.5
2018-07-24T03:20:21.995Z,30.6
2018-07-24T03:21:22.973Z,30.6
2018-07-24T03:22:23.947Z,30.5
2018-07-24T03:23:24.714Z,30.7
2018-07-24T03:24:25.689Z,30.5
2018-07-24T03:25:26.415Z,30.7
2018-07-24T03:26:27.382Z,30.3
2018-07-24T03:27:28.110Z,30.1
2018-07-24T03:28:28.877Z,29.8
2018-07-24T03:29:29.605Z,29.6
2018-07-24T03:30:30.344Z,29.7
2018-07-24T03:31:31.074Z,28.9
2018-07-24T03:32:31.810Z,28.4
2018-07-24T03:33:32.543Z,27.9
2018-07-24T03:34:33.266Z,27.2
2018-07-24T03:35:33.996Z,27.2
2018-07-24T03:36:34.729Z,28.3
2018-07-24T03:37:35.697Z,28.3
2018-07-24T03:38:36.444Z,27.9
2018-07-24T03:39:37.171Z,28.1
2018-07-24T03:40:37.906Z,28.4
2018-07-24T03:41:38.632Z,29.0
2018-07-24T03:42:39.373Z,28.7
2018-07-24T03:43:40.096Z,28.5
2018-07-24T03:44:40.816Z,28.7
2018-07-24T03:45:41.598Z,28.9
2018-07-24T03:46:42.575Z,28.7
2018-07-24T03:47:43.302Z,28.4
2018-07-24T03:48:44.025Z,28.0
2018-07-24T03:49:44.753Z,28.0
2018-07-24T03:50:45.827Z,27.2
2018-07-24T03:51:46.804Z,27.1
2018-07-24T03:52:47.534Z,27.1
2018-07-24T03:53:48.263Z,26.9
2018-07-24T03:54:48.989Z,26.7
2018-07-24T03:55:49.710Z,26.8
2018-07-24T03:56:50.441Z,26.5
2018-07-24T03:57:51.180Z,25.6
2018-07-24T03:58:51.894Z,25.0
2018-07-24T03:59:52.613Z,24.9
2018-07-24T04:00:53.339Z,25.0
2018-07-24T04:01:54.317Z,23.6
2018-07-24T04:02:55.043Z,23.5
2018-07-24T04:03:55.775Z,24.2
2018-07-24T04:04:56.565Z,24.5
2018-07-24T04:05:57.297Z,24.8
2018-07-24T04:06:58.028Z,25.1
2018-07-24T04:07:58.755Z,25.1
2018-07-24T04:08:59.479Z,24.6
2018-07-24T04:10:00.203Z,24.5
2018-07-24T04:11:00.937Z,24.4
2018-07-24T04:12:01.671Z,24.4
2018-07-24T04:13:02.407Z,25.0
2018-07-24T04:14:03.141Z,24.9
2018-07-24T04:15:04.222Z,23.9
2018-07-24T04:16:04.945Z,24.5
2018-07-24T04:17:05.679Z,23.9
2018-07-24T04:18:06.402Z,24.0
2018-07-24T04:19:07.131Z,23.7
2018-07-24T04:20:08.161Z,23.7
2018-07-24T04:21:08.881Z,23.8
2018-07-24T04:22:09.600Z,23.8
2018-07-24T04:23:10.326Z,23.5
2018-07-24T04:24:11.045Z,23.3
2018-07-24T04:25:11.823Z,23.7
2018-07-24T04:26:12.580Z,23.3
2018-07-24T04:27:13.300Z,23.1
2018-07-24T04:28:14.032Z,23.3
2018-07-24T04:29:14.751Z,22.8
2018-07-24T04:30:15.486Z,22.8
2018-07-24T04:31:16.211Z,22.8
2018-07-24T04:32:16.955Z,22.9
2018-07-24T04:33:17.681Z,23.4
2018-07-24T04:34:18.410Z,23.2
2018-07-24T04:35:19.144Z,22.9
2018-07-24T04:36:19.861Z,23.1
2018-07-24T04:37:20.600Z,22.3
2018-07-24T04:38:21.329Z,22.5
2018-07-24T04:39:22.306Z,21.8
2018-07-24T04:40:23.045Z,23.0
2018-07-24T04:41:23.766Z,22.8
2018-07-24T04:42:24.497Z,23.6
2018-07-24T04:43:25.223Z,23.9
2018-07-24T04:44:26.199Z,24.7
2018-07-24T04:45:27.300Z,25.1
2018-07-24T04:46:28.039Z,26.1
2018-07-24T04:47:28.769Z,26.1
2018-07-24T04:48:29.542Z,26.5
2018-07-24T04:49:30.244Z,26.9
2018-07-24T04:50:31.227Z,26.9
2018-07-24T04:51:31.955Z,26.3
2018-07-24T04:52:32.738Z,26.1
2018-07-24T04:53:33.468Z,26.1
2018-07-24T04:54:34.194Z,26.0
2018-07-24T04:55:34.927Z,25.0
2018-07-24T04:56:35.655Z,26.3
2018-07-24T04:57:36.394Z,26.3
2018-07-24T04:58:37.133Z,26.9
2018-07-24T04:59:37.859Z,27.3
2018-07-24T05:00:38.580Z,27.9
2018-07-24T05:01:39.306Z,28.2
2018-07-24T05:02:40.087Z,28.6
2018-07-24T05:03:40.772Z,28.6
2018-07-24T05:04:41.504Z,28.7
2018-07-24T05:05:42.243Z,28.9
2018-07-24T05:06:42.974Z,29.0
2018-07-24T05:07:43.702Z,28.9
2018-07-24T05:08:44.482Z,29.5
2018-07-24T05:09:45.211Z,29.6
2018-07-24T05:10:46.193Z,30.2
2018-07-24T05:11:46.917Z,30.6
2018-07-24T05:12:47.649Z,31.5
2018-07-24T05:13:48.414Z,33.1
2018-07-24T05:14:49.389Z,33.2
2018-07-24T05:15:50.125Z,35.5
2018-07-24T05:16:50.920Z,36.0
2018-07-24T05:17:51.575Z,37.0
2018-07-24T05:18:52.307Z,38.4
2018-07-24T05:19:53.310Z,40.2
2018-07-24T05:20:54.035Z,41.7
2018-07-24T05:21:54.768Z,43.6
2018-07-24T05:22:55.841Z,44.8
2018-07-24T05:23:56.571Z,46.3
2018-07-24T05:24:57.303Z,47.8
2018-07-24T05:25:58.147Z,48.7
2018-07-24T05:26:58.750Z,50.2
2018-07-24T05:27:59.526Z,50.4
2018-07-24T05:29:00.250Z,52.1
2018-07-24T05:30:00.984Z,54.1
2018-07-24T05:31:01.966Z,55.6
2018-07-24T05:32:02.684Z,58.9
2018-07-24T05:33:03.464Z,62.3
2018-07-24T05:34:04.533Z,67.3
2018-07-24T05:35:05.461Z,70.4
2018-07-24T05:36:06.531Z,73.3
2018-07-24T05:37:07.344Z,78.0
2018-07-24T05:38:08.116Z,78.7
2018-07-24T05:39:08.865Z,80.5
2018-07-24T05:40:09.591Z,81.9
2018-07-24T05:41:10.316Z,83.5
2018-07-24T05:42:11.065Z,85.9
2018-07-24T05:43:11.797Z,87.2
2018-07-24T05:44:12.791Z,88.5
2018-07-24T05:45:13.529Z,90.0
2018-07-24T05:46:14.255Z,91.9
2018-07-24T05:47:15.042Z,91.9
2018-07-24T05:48:15.764Z,92.7
2018-07-24T05:49:16.775Z,92.6
2018-07-24T05:50:17.515Z,93.8
2018-07-24T05:51:18.245Z,93.7
2018-07-24T05:52:19.292Z,93.8
2018-07-24T05:53:20.026Z,94.4
2018-07-24T05:54:20.764Z,95.4
2018-07-24T05:55:21.485Z,94.4
2018-07-24T05:56:22.212Z,95.3
2018-07-24T05:57:22.999Z,95.7
2018-07-24T05:58:23.739Z,96.3
2018-07-24T05:59:24.472Z,95.4
2018-07-24T06:00:25.207Z,97.4
2018-07-24T06:01:25.952Z,96.5
2018-07-24T06:02:26.725Z,96.1
2018-07-24T06:03:27.464Z,94.1
2018-07-24T06:04:28.206Z,94.8
2018-07-24T06:05:28.942Z,94.7
2018-07-24T06:06:29.678Z,95.2
2018-07-24T06:07:30.757Z,94.1
2018-07-24T06:08:31.496Z,92.7
2018-07-24T06:09:32.237Z,92.3
2018-07-24T06:10:32.972Z,91.2
2018-07-24T06:11:33.716Z,90.1
2018-07-24T06:12:34.516Z,90.3
2018-07-24T06:13:35.248Z,90.1
2018-07-24T06:14:35.977Z,90.3
2018-07-24T06:15:36.703Z,90.1
2018-07-24T06:16:37.480Z,89.7
2018-07-24T06:17:38.231Z,88.7
2018-07-24T06:18:39.473Z,89.0
2018-07-24T06:19:40.194Z,90.3
2018-07-24T06:20:40.933Z,89.5
2018-07-24T06:21:41.694Z,90.2
2018-07-24T06:22:42.467Z,90.7
2018-07-24T06:23:43.233Z,91.7
2018-07-24T06:24:43.961Z,94.0
2018-07-24T06:25:44.687Z,93.3
2018-07-24T06:26:45.423Z,92.9
2018-07-24T06:27:46.174Z,93.6
2018-07-24T06:28:46.922Z,94.2
2018-07-24T06:29:48.257Z,95.4
2018-07-24T06:30:49.002Z,96.5
2018-07-24T06:31:49.724Z,96.5
2018-07-24T06:32:50.703Z,98.2
2018-07-24T06:33:51.444Z,96.8
2018-07-24T06:34:52.169Z,97.3
2018-07-24T06:35:52.905Z,98.6
2018-07-24T06:36:53.638Z,98.4
2018-07-24T06:37:54.366Z,97.8
2018-07-24T06:38:55.090Z,98.5
2018-07-24T06:39:55.881Z,98.6
2018-07-24T06:40:56.611Z,98.2
2018-07-24T06:41:57.356Z,97.8
2018-07-24T06:42:58.089Z,98.3
2018-07-24T06:43:58.837Z,96.9
2018-07-24T06:44:59.622Z,98.8
2018-07-24T06:46:00.362Z,99.9
2018-07-24T06:47:01.096Z,100.0
2018-07-24T06:48:01.828Z,100.0
2018-07-24T06:49:02.564Z,100.0
2018-07-24T06:50:03.342Z,100.0
2018-07-24T06:51:04.137Z,100.0
2018-07-24T06:52:04.889Z,100.0
2018-07-24T06:53:05.574Z,100.0
2018-07-24T06:54:06.309Z,100.0
2018-07-24T06:55:07.100Z,100.0
2018-07-24T06:56:07.843Z,100.0
2018-07-24T06:57:08.582Z,100.0
2018-07-24T06:58:09.333Z,100.0
2018-07-24T06:59:10.060Z,100.0
2018-07-24T07:00:11.042Z,100.0
2018-07-24T07:01:11.781Z,100.0
2018-07-24T07:02:12.547Z,100.0
2018-07-24T07:03:13.263Z,100.0
2018-07-24T07:04:13.999Z,100.0
2018-07-24T07:05:14.811Z,100.0
2018-07-24T07:06:15.480Z,100.0
2018-07-24T07:07:16.260Z,100.0
2018-07-24T07:08:17.003Z,100.0
2018-07-24T07:09:17.729Z,100.0
2018-07-24T07:10:18.503Z,100.0
2018-07-24T07:11:19.203Z,100.0
2018-07-24T07:12:20.185Z,100.0
2018-07-24T07:13:21.010Z,100.0
2018-07-24T07:14:21.664Z,100.0
2018-07-24T07:15:22.406Z,100.0
2018-07-24T07:16:23.132Z,100.0
2018-07-24T07:17:23.871Z,100.0
2018-07-24T07:18:24.601Z,100.0
2018-07-24T07:19:25.329Z,100.0
2018-07-24T07:20:26.096Z,100.0
2018-07-24T07:21:26.806Z,100.0
2018-07-24T07:22:27.546Z,99.9
2018-07-24T07:23:28.320Z,100.0
2018-07-24T07:24:29.033Z,100.0
2018-07-24T07:25:29.767Z,100.0
2018-07-24T07:26:30.510Z,93.1
2018-07-24T07:27:31.573Z,99.7
2018-07-24T07:28:32.301Z,100.0
2018-07-24T07:29:33.043Z,100.0
2018-07-24T07:30:33.762Z,100.0
2018-07-24T07:31:34.493Z,99.0
2018-07-24T07:32:35.260Z,96.7
2018-07-24T07:33:35.956Z,90.3
2018-07-24T07:34:36.689Z,86.7
2018-07-24T07:35:37.672Z,84.6
2018-07-24T07:36:38.659Z,85.4
2018-07-24T07:37:39.756Z,84.2
2018-07-24T07:38:40.545Z,80.7
2018-07-24T07:39:41.334Z,74.6
2018-07-24T07:40:42.066Z,72.6
2018-07-24T07:41:42.802Z,72.6
2018-07-24T07:42:43.540Z,67.4
2018-07-24T07:43:44.272Z,69.9
2018-07-24T07:44:45.250Z,68.1
2018-07-24T07:45:45.986Z,62.6
2018-07-24T07:46:46.721Z,61.6
2018-07-24T07:47:47.469Z,60.6
2018-07-24T07:48:48.206Z,61.2
2018-07-24T07:49:48.937Z,60.8
2018-07-24T07:50:49.669Z,55.6
2018-07-24T07:51:50.410Z,58.0
2018-07-24T07:52:51.155Z,61.2
2018-07-24T07:53:51.888Z,58.6
2018-07-24T07:54:52.624Z,57.0
2018-07-24T07:55:53.360Z,55.2
2018-07-24T07:56:54.100Z,54.7
2018-07-24T07:57:54.842Z,52.1
2018-07-24T07:58:55.576Z,47.9
2018-07-24T07:59:56.321Z,48.9
2018-07-24T08:00:57.059Z,49.5
2018-07-24T08:01:57.812Z,48.1
2018-07-24T08:02:58.890Z,48.1
2018-07-24T08:03:59.661Z,46.6
2018-07-24T08:05:00.421Z,46.0
2018-07-24T08:06:01.148Z,45.3
2018-07-24T08:07:01.882Z,44.6
2018-07-24T08:08:02.628Z,45.2
2018-07-24T08:09:03.360Z,44.7
2018-07-24T08:10:04.143Z,44.5
2018-07-24T08:11:04.884Z,44.4
2018-07-24T08:12:05.619Z,45.5
2018-07-24T08:13:06.370Z,46.0
2018-07-24T08:14:07.150Z,45.8
2018-07-24T08:15:07.848Z,46.3
2018-07-24T08:16:08.586Z,43.3
2018-07-24T08:17:09.323Z,44.5
2018-07-24T08:18:10.114Z,41.9
2018-07-24T08:19:10.853Z,41.6
2018-07-24T08:20:11.581Z,41.4
2018-07-24T08:21:12.328Z,40.3
2018-07-24T08:22:13.065Z,40.9
2018-07-24T08:23:13.840Z,40.5
2018-07-24T08:24:14.579Z,39.4
2018-07-24T08:25:15.316Z,40.5
2018-07-24T08:26:16.064Z,41.1
2018-07-24T08:27:16.803Z,42.2
2018-07-24T08:28:17.537Z,39.3
2018-07-24T08:29:18.293Z,40.4
2018-07-24T08:30:19.027Z,41.0
2018-07-24T08:31:19.779Z,40.5
2018-07-24T08:32:20.517Z,41.0
2018-07-24T08:33:21.275Z,41.6
2018-07-24T08:34:22.264Z,42.2
2018-07-24T08:35:23.263Z,40.4
2018-07-24T08:36:24.079Z,40.1
2018-07-24T08:37:24.830Z,40.8
2018-07-24T08:38:25.626Z,40.4
2018-07-24T08:39:26.378Z,40.8
2018-07-24T08:40:27.113Z,41.2
2018-07-24T08:41:27.844Z,40.3
2018-07-24T08:42:28.600Z,40.2
2018-07-24T08:43:29.381Z,39.6
2018-07-24T08:44:30.116Z,39.4
2018-07-24T08:45:30.858Z,40.3
2018-07-24T08:46:31.593Z,41.1
2018-07-24T08:47:32.328Z,42.2
2018-07-24T08:48:33.114Z,42.5
2018-07-24T08:49:33.882Z,41.4
2018-07-24T08:50:34.635Z,39.9
2018-07-24T08:51:35.386Z,41.1
2018-07-24T08:52:36.137Z,41.5
2018-07-24T08:53:37.247Z,42.1
2018-07-24T08:54:37.763Z,40.3
2018-07-24T08:55:38.609Z,41.1
2018-07-24T08:56:39.082Z,41.8
2018-07-24T08:57:39.853Z,43.4
2018-07-24T08:58:40.564Z,41.5
2018-07-24T08:59:41.306Z,42.8
2018-07-24T09:00:42.056Z,42.3
2018-07-24T09:01:42.837Z,39.5
2018-07-24T09:02:43.588Z,39.1
2018-07-24T09:03:44.358Z,38.9
2018-07-24T09:04:45.073Z,39.0
2018-07-24T09:05:46.059Z,39.4
2018-07-24T09:06:46.844Z,39.4
2018-07-24T09:07:47.617Z,40.3
2018-07-24T09:08:48.412Z,39.5
2018-07-24T09:09:49.171Z,39.4
2018-07-24T09:10:49.903Z,38.3
2018-07-24T09:11:50.639Z,38.0
2018-07-24T09:12:51.384Z,38.4
2018-07-24T09:13:52.128Z,39.4
2018-07-24T09:14:52.879Z,39.5
2018-07-24T09:15:53.621Z,38.5
2018-07-24T09:16:54.614Z,38.6
2018-07-24T09:17:55.396Z,38.4
2018-07-24T09:18:56.136Z,38.4
2018-07-24T09:19:56.879Z,39.0
2018-07-24T09:20:57.679Z,39.4
2018-07-24T09:21:58.380Z,37.9
2018-07-24T09:22:59.147Z,36.7
2018-07-24T09:23:59.881Z,37.0
2018-07-24T09:25:00.623Z,38.2
2018-07-24T09:26:01.416Z,39.1
2018-07-24T09:27:02.165Z,38.5
2018-07-24T09:28:03.208Z,37.6
2018-07-24T09:29:03.996Z,37.3
2018-07-24T09:30:04.752Z,38.5
2018-07-24T09:31:05.621Z,38.3
2018-07-24T09:32:06.367Z,38.6
2018-07-24T09:33:07.459Z,38.6
2018-07-24T09:34:08.206Z,37.8
2018-07-24T09:35:08.954Z,37.1
2018-07-24T09:36:09.694Z,38.3
2018-07-24T09:37:10.443Z,38.3
2018-07-24T09:38:11.550Z,37.9
2018-07-24T09:39:12.293Z,38.2
2018-07-24T09:40:13.046Z,38.6
2018-07-24T09:41:13.795Z,38.2
2018-07-24T09:42:14.538Z,38.0
2018-07-24T09:43:15.394Z,38.4
2018-07-24T09:44:16.132Z,38.2
2018-07-24T09:45:16.870Z,38.4
2018-07-24T09:46:17.613Z,37.7
2018-07-24T09:47:18.365Z,37.5
2018-07-24T09:48:19.149Z,36.4
2018-07-24T09:49:20.014Z,36.9
2018-07-24T09:50:20.743Z,38.0
2018-07-24T09:51:21.492Z,38.5
2018-07-24T09:52:22.240Z,38.7
2018-07-24T09:53:22.976Z,37.8
2018-07-24T09:54:23.725Z,38.3
2018-07-24T09:55:24.465Z,37.2
2018-07-24T09:56:25.211Z,37.1
2018-07-24T09:57:25.941Z,38.1
2018-07-24T09:58:26.680Z,37.5
2018-07-24T09:59:27.505Z,37.5
2018-07-24T10:00:28.185Z,37.1
2018-07-24T10:01:28.953Z,36.4
2018-07-24T10:02:29.742Z,35.9
2018-07-24T10:03:30.515Z,36.7
2018-07-24T10:04:31.251Z,36.8
2018-07-24T10:05:32.866Z,35.7
2018-07-24T10:06:33.618Z,34.7
2018-07-24T10:07:34.715Z,35.4
2018-07-24T10:08:35.458Z,35.5
2018-07-24T10:09:36.208Z,36.0
2018-07-24T10:10:36.949Z,36.0
2018-07-24T10:11:37.681Z,34.8
2018-07-24T10:12:38.440Z,34.5
2018-07-24T10:13:39.163Z,33.7
2018-07-24T10:14:39.904Z,34.5
2018-07-24T10:15:40.647Z,34.6
2018-07-24T10:16:41.706Z,34.5
2018-07-24T10:17:42.391Z,34.4
2018-07-24T10:18:43.412Z,33.4
2018-07-24T10:19:44.127Z,33.9
2018-07-24T10:20:44.862Z,35.9
2018-07-24T10:21:45.596Z,34.4
2018-07-24T10:22:46.685Z,33.1
2018-07-24T10:23:47.439Z,34.0
2018-07-24T10:24:48.181Z,33.4
2018-07-24T10:25:49.168Z,33.9
2018-07-24T10:26:49.910Z,34.6
2018-07-24T10:27:50.662Z,33.9
2018-07-24T10:28:51.409Z,35.7
2018-07-24T10:29:52.157Z,35.4
2018-07-24T10:30:52.892Z,35.4
2018-07-24T10:31:53.633Z,34.9
2018-07-24T10:32:54.429Z,34.5
2018-07-24T10:33:55.172Z,35.2
2018-07-24T10:34:55.932Z,33.8
2018-07-24T10:35:56.672Z,33.3
2018-07-24T10:36:57.416Z,33.1
2018-07-24T10:37:58.163Z,32.2
2018-07-24T10:38:58.910Z,32.9
2018-07-24T10:39:59.660Z,33.5
2018-07-24T10:41:00.418Z,32.8
2018-07-24T10:42:01.149Z,33.0
2018-07-24T10:43:01.927Z,32.9
2018-07-24T10:44:02.634Z,33.0
2018-07-24T10:45:03.365Z,33.1
2018-07-24T10:46:04.164Z,32.6
2018-07-24T10:47:04.906Z,31.8
2018-07-24T10:48:05.647Z,31.7
2018-07-24T10:49:06.400Z,31.4
2018-07-24T10:50:07.144Z,31.5
2018-07-24T10:51:07.935Z,32.0
2018-07-24T10:52:08.702Z,32.2
2018-07-24T10:53:09.442Z,33.0
2018-07-24T10:54:10.182Z,31.7
2018-07-24T10:55:10.941Z,30.8
2018-07-24T10:56:11.697Z,31.0
2018-07-24T10:57:12.478Z,30.0
2018-07-24T10:58:13.214Z,30.3
2018-07-24T10:59:13.985Z,30.2
2018-07-24T11:00:14.731Z,30.8
2018-07-24T11:01:15.467Z,30.5
2018-07-24T11:02:16.212Z,30.0
2018-07-24T11:03:16.960Z,30.6
2018-07-24T11:04:17.895Z,30.3
2018-07-24T11:05:18.671Z,31.0
2018-07-24T11:06:19.378Z,31.9
2018-07-24T11:07:20.180Z,32.2
2018-07-24T11:08:20.925Z,31.7
2018-07-24T11:09:21.673Z,32.4
2018-07-24T11:10:22.411Z,31.7
2018-07-24T11:11:23.147Z,30.9
2018-07-24T11:12:24.921Z,29.8
2018-07-24T11:13:25.674Z,31.0
2018-07-24T11:14:26.411Z,31.8
2018-07-24T11:15:27.144Z,32.4
2018-07-24T11:16:27.908Z,31.9
2018-07-24T11:17:28.649Z,31.0
2018-07-24T11:18:29.389Z,31.1
2018-07-24T11:19:30.127Z,31.1
2018-07-24T11:20:30.887Z,32.0
2018-07-24T11:21:31.626Z,31.6
2018-07-24T11:22:32.498Z,30.6
2018-07-24T11:23:33.102Z,30.0
2018-07-24T11:24:33.843Z,29.6
2018-07-24T11:25:34.588Z,30.1
2018-07-24T11:26:35.581Z,30.7
2018-07-24T11:27:36.329Z,30.9
2018-07-24T11:28:37.079Z,31.4
2018-07-24T11:29:37.827Z,30.3
2018-07-24T11:30:38.917Z,30.8
2018-07-24T11:31:39.662Z,29.7
2018-07-24T11:32:40.674Z,30.6
2018-07-24T11:33:41.410Z,31.0
2018-07-24T11:34:42.146Z,31.0
2018-07-24T11:35:43.043Z,30.9
2018-07-24T11:36:43.642Z,30.2
2018-07-24T11:37:44.388Z,28.2
2018-07-24T11:38:45.133Z,28.4
2018-07-24T11:39:45.956Z,28.3
2018-07-24T11:40:46.695Z,28.4
2018-07-24T11:41:47.441Z,29.1
2018-07-24T11:42:48.186Z,28.4
2018-07-24T11:43:48.936Z,28.3
2018-07-24T11:44:49.676Z,29.1
2018-07-24T11:45:50.482Z,29.1
2018-07-24T11:46:51.225Z,28.9
2018-07-24T11:47:51.967Z,28.9
2018-07-24T11:48:52.708Z,28.7
2018-07-24T11:49:53.462Z,28.3
2018-07-24T11:50:54.475Z,28.4
2018-07-24T11:51:55.220Z,28.5
2018-07-24T11:52:55.959Z,28.5
2018-07-24T11:53:56.698Z,28.4
2018-07-24T11:54:57.446Z,27.8
2018-07-24T11:55:58.189Z,27.8
2018-07-24T11:56:58.939Z,26.6
2018-07-24T11:57:59.747Z,28.7
2018-07-24T11:59:00.750Z,29.1
2018-07-24T12:00:01.739Z,29.1
2018-07-24T12:01:02.486Z,28.4
2018-07-24T12:02:03.475Z,26.7
2018-07-24T12:03:04.263Z,27.7
2018-07-24T12:04:05.026Z,28.5
2018-07-24T12:05:05.764Z,29.1
2018-07-24T12:06:06.516Z,28.7
2018-07-24T12:07:07.264Z,27.7
2018-07-24T12:08:08.075Z,26.4
2018-07-24T12:09:08.822Z,26.7
2018-07-24T12:10:09.562Z,26.5
2018-07-24T12:11:10.303Z,26.4
2018-07-24T12:12:11.049Z,26.4
2018-07-24T12:13:11.798Z,26.7
2018-07-24T12:14:12.549Z,26.9
2018-07-24T12:15:13.323Z,25.7
2018-07-24T12:16:14.047Z,25.4
2018-07-24T12:17:14.796Z,24.5
2018-07-24T12:18:15.547Z,25.5
2018-07-24T12:19:16.301Z,25.1
2018-07-24T12:20:17.062Z,25.6
2018-07-24T12:21:17.798Z,24.9
2018-07-24T12:22:18.545Z,26.9
2018-07-24T12:23:19.280Z,27.2
2018-07-24T12:24:20.032Z,26.5
2018-07-24T12:25:20.767Z,26.4
2018-07-24T12:26:21.520Z,27.1
2018-07-24T12:27:22.271Z,26.8
2018-07-24T12:28:23.022Z,26.6
2018-07-24T12:29:23.766Z,26.8
2018-07-24T12:30:24.502Z,25.8
2018-07-24T12:31:25.248Z,26.4
2018-07-24T12:32:26.006Z,26.5
2018-07-24T12:33:26.751Z,25.5
2018-07-24T12:34:27.556Z,25.6
2018-07-24T12:35:28.301Z,25.3
2018-07-24T12:36:29.044Z,24.9
2018-07-24T12:37:29.793Z,24.5
2018-07-24T12:38:30.540Z,24.7
2018-07-24T12:39:31.285Z,25.1
2018-07-24T12:40:32.035Z,26.3
2018-07-24T12:41:32.776Z,25.5
2018-07-24T12:42:33.527Z,25.3
2018-07-24T12:43:34.328Z,25.5
2018-07-24T12:44:35.039Z,25.1
2018-07-24T12:45:35.802Z,25.4
2018-07-24T12:46:36.546Z,25.1
2018-07-24T12:47:37.300Z,25.9
2018-07-24T12:48:38.055Z,25.8
2018-07-24T12:49:38.796Z,25.1
2018-07-24T12:50:39.547Z,24.5
2018-07-24T12:51:40.275Z,24.3
2018-07-24T12:52:41.028Z,24.2
2018-07-24T12:53:41.770Z,24.6
2018-07-24T12:54:42.576Z,24.1
2018-07-24T12:55:43.567Z,24.3
2018-07-24T12:56:44.315Z,23.5
2018-07-24T12:57:45.090Z,24.6
2018-07-24T12:58:45.840Z,25.1
2018-07-24T12:59:46.594Z,24.6
2018-07-24T13:00:47.342Z,24.6
2018-07-24T13:01:48.093Z,25.2
2018-07-24T13:02:48.840Z,25.0
2018-07-24T13:03:49.606Z,24.2
2018-07-24T13:04:50.342Z,23.9
2018-07-24T13:05:51.103Z,23.9
2018-07-24T13:06:51.937Z,24.6
2018-07-24T13:07:52.661Z,24.5
2018-07-24T13:08:53.419Z,23.5
2018-07-24T13:09:54.188Z,24.5
2018-07-24T13:10:55.028Z,24.6
2018-07-24T13:11:55.719Z,24.9
2018-07-24T13:12:56.468Z,24.7
2018-07-24T13:13:57.475Z,25.1
2018-07-24T13:14:58.212Z,24.6
2018-07-24T13:15:59.221Z,24.7
2018-07-24T13:16:59.957Z,25.4
2018-07-24T13:18:00.716Z,25.1
2018-07-24T13:19:01.715Z,24.9
2018-07-24T13:20:02.462Z,23.5
2018-07-24T13:21:03.211Z,24.5
2018-07-24T13:22:04.221Z,24.5
2018-07-24T13:23:05.303Z,24.7
2018-07-24T13:24:06.485Z,26.0
2018-07-24T13:25:07.228Z,26.8
2018-07-24T13:26:07.960Z,25.5
2018-07-24T13:27:08.706Z,25.6
2018-07-24T13:28:09.459Z,24.6